createdAt,value
2023-03-05T00:02:15.087Z,20.17
2023-03-05T00:04:44.727Z,20.18
2023-03-05T00:07:15.921Z,20.18
2023-03-05T00:09:45.503Z,20.18
2023-03-05T00:12:15.131Z,20.19
2023-03-05T00:14:44.859Z,20.18
2023-03-05T00:17:14.542Z,20.18
2023-03-05T00:19:44.211Z,20.19
2023-03-05T00:22:13.904Z,20.20
2023-03-05T00:24:43.503Z,20.20
2023-03-05T00:27:13.177Z,20.21
2023-03-05T00:29:42.870Z,20.23
2023-03-05T00:32:12.493Z,20.23
2023-03-05T00:34:42.206Z,20.23
2023-03-05T00:37:11.927Z,20.23
2023-03-05T00:39:41.494Z,20.24
2023-03-05T00:42:11.062Z,20.24
2023-03-05T00:44:40.744Z,20.24
2023-03-05T00:47:10.307Z,20.24
2023-03-05T00:49:39.901Z,20.24
2023-03-05T00:52:09.553Z,20.23
2023-03-05T00:54:39.207Z,20.25
2023-03-05T00:57:08.942Z,20.24
2023-03-05T00:59:38.737Z,20.26
2023-03-05T01:02:08.461Z,20.26
2023-03-05T01:04:38.039Z,20.26
2023-03-05T01:07:07.694Z,20.28
2023-03-05T01:09:37.278Z,20.28
2023-03-05T01:12:07.131Z,20.28
2023-03-05T01:14:37.434Z,20.28
2023-03-05T01:17:07.132Z,20.27
2023-03-05T01:19:36.729Z,20.28
2023-03-05T01:22:06.409Z,20.28
2023-03-05T01:24:35.985Z,20.29
2023-03-05T01:27:05.603Z,20.32
2023-03-05T01:29:35.176Z,20.31
2023-03-05T01:32:04.850Z,20.34
2023-03-05T01:34:34.470Z,20.33
2023-03-05T01:37:04.256Z,20.34
2023-03-05T01:39:33.854Z,20.36
2023-03-05T01:42:03.490Z,20.33
2023-03-05T01:44:33.857Z,20.37
2023-03-05T01:47:04.381Z,20.37
2023-03-05T01:49:40.641Z,20.39
2023-03-05T01:52:15.432Z,20.39
2023-03-05T01:54:52.950Z,20.40
2023-03-05T01:57:44.727Z,20.39
2023-03-05T02:00:22.549Z,20.39
2023-03-05T02:02:52.744Z,20.38
2023-03-05T02:05:28.775Z,20.40
2023-03-05T02:07:59.237Z,20.41
2023-03-05T02:10:31.205Z,20.41
2023-03-05T02:13:02.810Z,20.41
2023-03-05T02:15:32.546Z,20.43
2023-03-05T02:18:02.891Z,20.41
2023-03-05T02:20:34.871Z,20.42
2023-03-05T02:23:04.470Z,20.43
2023-03-05T02:25:34.117Z,20.44
2023-03-05T02:28:34.136Z,20.46
2023-03-05T02:31:03.763Z,20.45
2023-03-05T02:33:33.497Z,20.45
2023-03-05T02:36:03.103Z,20.44
2023-03-05T02:38:32.793Z,20.45
2023-03-05T02:41:02.418Z,20.45
2023-03-05T02:43:32.021Z,20.45
2023-03-05T02:46:01.756Z,20.45
2023-03-05T02:48:31.352Z,20.44
2023-03-05T02:51:01.069Z,20.46
2023-03-05T02:53:30.652Z,20.48
2023-03-05T02:56:00.323Z,20.47
2023-03-05T02:58:29.954Z,20.46
2023-03-05T03:00:59.589Z,20.47
2023-03-05T03:03:29.234Z,20.48
2023-03-05T03:05:58.890Z,20.47
2023-03-05T03:08:28.463Z,20.50
2023-03-05T03:10:58.148Z,20.48
2023-03-05T03:13:27.854Z,20.48
2023-03-05T03:16:14.118Z,20.48
2023-03-05T03:18:43.935Z,20.48
2023-03-05T03:21:19.840Z,20.48
2023-03-05T03:23:49.481Z,20.48
2023-03-05T03:26:19.331Z,20.47
2023-03-05T03:28:49.049Z,20.47
2023-03-05T03:31:19.043Z,20.48
2023-03-05T03:33:48.646Z,20.47
2023-03-05T03:36:18.229Z,20.47
2023-03-05T03:38:47.850Z,20.47
2023-03-05T03:41:18.086Z,20.48
2023-03-05T03:43:47.762Z,20.47
2023-03-05T03:46:17.403Z,20.46
2023-03-05T03:48:47.076Z,20.49
2023-03-05T03:51:16.670Z,20.48
2023-03-05T03:53:46.346Z,20.48
2023-03-05T03:56:16.044Z,20.49
2023-03-05T03:58:45.811Z,20.49
2023-03-05T04:01:15.405Z,20.49
2023-03-05T04:03:45.051Z,20.49
2023-03-05T04:06:15.027Z,20.49
2023-03-05T04:08:44.704Z,20.50
2023-03-05T04:11:14.389Z,20.50
2023-03-05T04:13:44.174Z,20.49
2023-03-05T04:16:14.100Z,20.50
2023-03-05T04:18:43.803Z,20.50
2023-03-05T04:21:13.412Z,20.51
2023-03-05T04:23:43.061Z,20.50
2023-03-05T04:26:12.644Z,20.50
2023-03-05T04:28:42.383Z,20.52
2023-03-05T04:31:12.024Z,20.51
2023-03-05T04:33:41.613Z,20.52
2023-03-05T04:36:14.389Z,20.51
2023-03-05T04:38:44.166Z,20.52
2023-03-05T04:41:13.751Z,20.54
2023-03-05T04:43:43.421Z,20.52
2023-03-05T04:46:13.158Z,20.53
2023-03-05T04:48:43.298Z,20.54
2023-03-05T04:51:12.892Z,20.53
2023-03-05T04:53:42.491Z,20.54
2023-03-05T04:56:12.127Z,20.53
2023-03-05T04:58:44.742Z,20.53
2023-03-05T05:01:15.095Z,20.54
2023-03-05T05:03:44.702Z,20.54
2023-03-05T05:06:14.596Z,20.54
2023-03-05T05:08:45.032Z,20.53
2023-03-05T05:11:16.081Z,20.54
2023-03-05T05:13:45.659Z,20.54
2023-03-05T05:16:15.331Z,20.53
2023-03-05T05:18:45.130Z,20.52
2023-03-05T05:21:16.704Z,20.53
2023-03-05T05:23:46.430Z,20.53
2023-03-05T05:26:16.361Z,20.54
2023-03-05T05:28:46.177Z,20.53
2023-03-05T05:31:17.018Z,20.54
2023-03-05T05:33:49.349Z,20.51
2023-03-05T05:36:20.743Z,20.54
2023-03-05T05:38:50.631Z,20.51
2023-03-05T05:41:21.564Z,20.54
2023-03-05T05:43:51.248Z,20.53
2023-03-05T05:46:22.439Z,20.52
2023-03-05T05:48:52.074Z,20.54
2023-03-05T05:51:23.387Z,20.53
2023-03-05T05:53:53.056Z,20.52
2023-03-05T05:56:22.872Z,20.50
2023-03-05T05:58:52.638Z,20.53
2023-03-05T06:01:26.229Z,20.52
2023-03-05T06:03:55.979Z,20.52
2023-03-05T06:06:26.569Z,20.53
2023-03-05T06:08:56.431Z,20.53
2023-03-05T06:11:26.091Z,20.52
2023-03-05T06:13:55.680Z,20.53
2023-03-05T06:16:26.148Z,20.53
2023-03-05T06:18:55.807Z,20.52
2023-03-05T06:21:25.968Z,20.51
2023-03-05T06:23:55.684Z,20.52
2023-03-05T06:26:25.371Z,20.53
2023-03-05T06:28:55.389Z,20.53
2023-03-05T06:31:28.677Z,20.52
2023-03-05T06:33:59.756Z,20.52
2023-03-05T06:36:29.632Z,20.53
2023-03-05T06:38:59.408Z,20.53
2023-03-05T06:41:30.794Z,20.53
2023-03-05T06:44:01.930Z,20.51
2023-03-05T06:46:36.236Z,20.51
2023-03-05T06:49:06.181Z,20.51
2023-03-05T06:51:37.216Z,20.51
2023-03-05T06:54:14.025Z,20.51
2023-03-05T06:56:46.278Z,20.50
2023-03-05T06:59:16.838Z,20.51
2023-03-05T07:01:47.168Z,20.51
2023-03-05T07:04:16.955Z,20.50
2023-03-05T07:06:46.698Z,20.49
2023-03-05T07:09:17.125Z,20.51
2023-03-05T07:11:46.768Z,20.50
2023-03-05T07:14:16.509Z,20.52
2023-03-05T07:16:46.085Z,20.51
2023-03-05T07:19:15.785Z,20.50
2023-03-05T07:21:45.541Z,20.52
2023-03-05T07:24:15.461Z,20.50
2023-03-05T07:26:45.846Z,20.51
2023-03-05T07:29:16.460Z,20.50
2023-03-05T07:31:46.099Z,20.50
2023-03-05T07:34:15.710Z,20.50
2023-03-05T07:36:45.232Z,20.51
2023-03-05T07:39:14.907Z,20.49
2023-03-05T07:41:44.580Z,20.49
2023-03-05T07:44:14.185Z,20.49
2023-03-05T07:46:43.901Z,20.48
2023-03-05T07:49:13.565Z,20.47
2023-03-05T07:51:43.377Z,20.48
2023-03-05T07:54:13.078Z,20.49
2023-03-05T07:56:42.892Z,20.49
2023-03-05T07:59:14.185Z,20.47
2023-03-05T08:01:43.866Z,20.47
2023-03-05T08:04:13.599Z,20.49
2023-03-05T08:06:43.798Z,20.48
2023-03-05T08:09:13.380Z,20.48
2023-03-05T08:11:43.127Z,20.49
2023-03-05T08:14:13.288Z,20.49
2023-03-05T08:16:43.089Z,20.48
2023-03-05T08:19:12.821Z,20.48
2023-03-05T08:21:42.390Z,20.47
2023-03-05T08:24:13.079Z,20.47
2023-03-05T08:26:42.879Z,20.48
2023-03-05T08:29:12.690Z,20.47
2023-03-05T08:31:42.498Z,20.47
2023-03-05T08:34:12.110Z,20.48
2023-03-05T08:36:41.817Z,20.47
2023-03-05T08:39:11.663Z,20.47
2023-03-05T08:41:41.346Z,20.46
2023-03-05T08:44:11.006Z,20.45
2023-03-05T08:46:43.708Z,20.46
2023-03-05T08:49:13.341Z,20.47
2023-03-05T08:51:42.941Z,20.46
2023-03-05T08:54:12.605Z,20.44
2023-03-05T08:56:42.222Z,20.43
2023-03-05T08:59:13.591Z,20.44
2023-03-05T09:01:43.533Z,20.45
2023-03-05T09:04:13.168Z,20.44
2023-03-05T09:06:42.811Z,20.42
2023-03-05T09:09:12.537Z,20.43
2023-03-05T09:11:42.117Z,20.43
2023-03-05T09:14:12.565Z,20.43
2023-03-05T09:16:42.966Z,20.42
2023-03-05T09:19:14.346Z,20.40
2023-03-05T09:21:44.113Z,20.40
2023-03-05T09:24:15.800Z,20.42
2023-03-05T09:26:45.742Z,20.40
2023-03-05T09:29:15.310Z,20.41
2023-03-05T09:31:45.683Z,20.39
2023-03-05T09:34:15.281Z,20.38
2023-03-05T09:36:44.856Z,20.39
2023-03-05T09:39:14.530Z,20.38
2023-03-05T09:42:05.263Z,20.37
2023-03-05T09:45:04.167Z,20.37
2023-03-05T09:48:00.446Z,20.34
2023-03-05T09:50:48.156Z,20.35
2023-03-05T09:53:35.997Z,20.33
2023-03-05T09:56:38.618Z,20.34
2023-03-05T09:59:20.747Z,20.31
2023-03-05T10:01:50.426Z,20.30
2023-03-05T10:04:56.714Z,20.31
2023-03-05T10:07:30.345Z,20.30
2023-03-05T10:10:03.975Z,20.30
2023-03-05T10:12:47.103Z,20.28
2023-03-05T10:15:53.614Z,20.31
2023-03-05T10:18:35.323Z,20.26
2023-03-05T10:21:20.450Z,20.30
2023-03-05T10:24:25.213Z,20.30
2023-03-05T10:26:54.814Z,20.28
2023-03-05T10:30:04.778Z,20.27
2023-03-05T10:33:02.450Z,20.25
2023-03-05T10:35:48.488Z,20.25
2023-03-05T10:38:27.987Z,20.25
2023-03-05T10:40:57.871Z,20.23
2023-03-05T10:43:51.651Z,20.25
2023-03-05T10:46:22.599Z,20.24
2023-03-05T10:49:04.600Z,20.23
2023-03-05T10:52:18.535Z,20.23
2023-03-05T10:54:48.337Z,20.23
2023-03-05T10:57:25.713Z,20.22
2023-03-05T11:00:08.233Z,20.23
2023-03-05T11:02:37.945Z,20.22
2023-03-05T11:05:07.936Z,20.22
2023-03-05T11:07:38.105Z,20.20
2023-03-05T11:10:22.954Z,20.21
2023-03-05T11:12:52.736Z,20.18
2023-03-05T11:15:28.208Z,20.19
2023-03-05T11:18:23.000Z,20.20
2023-03-05T11:20:52.847Z,20.19
2023-03-05T11:23:26.509Z,20.18
2023-03-05T11:26:14.312Z,20.18
2023-03-05T11:28:55.896Z,20.17
2023-03-05T11:31:27.529Z,20.17
2023-03-05T11:34:09.939Z,20.17
2023-03-05T11:36:43.633Z,20.16
2023-03-05T11:39:18.311Z,20.16
2023-03-05T11:42:02.795Z,20.14
2023-03-05T11:44:48.415Z,20.15
2023-03-05T11:47:29.226Z,20.14
2023-03-05T11:50:05.378Z,20.14
2023-03-05T11:52:41.429Z,20.15
2023-03-05T11:55:18.142Z,20.15
2023-03-05T11:58:09.761Z,20.15
2023-03-05T12:00:45.635Z,20.12
2023-03-05T12:03:23.773Z,20.10
2023-03-05T12:06:14.520Z,20.12
2023-03-05T12:08:46.849Z,20.11
2023-03-05T12:11:33.388Z,20.12
2023-03-05T12:14:15.219Z,20.10
2023-03-05T12:16:52.523Z,20.09
2023-03-05T12:19:43.476Z,20.12
2023-03-05T12:22:22.082Z,20.11
2023-03-05T12:24:51.861Z,20.10
2023-03-05T12:27:38.369Z,20.10
2023-03-05T12:30:10.955Z,20.09
2023-03-05T12:32:46.655Z,20.09
2023-03-05T12:35:39.580Z,20.09
2023-03-05T12:38:31.766Z,20.08
2023-03-05T12:41:28.016Z,20.08
2023-03-05T12:44:10.177Z,20.04
2023-03-05T12:46:40.259Z,20.05
2023-03-05T12:49:29.841Z,20.05
2023-03-05T12:52:03.024Z,20.04
2023-03-05T12:54:43.368Z,20.05
2023-03-05T12:57:27.925Z,20.04
2023-03-05T12:59:58.286Z,20.05
2023-03-05T13:02:46.108Z,20.04
2023-03-05T13:05:29.337Z,20.02
2023-03-05T13:08:23.362Z,20.06
2023-03-05T13:11:03.582Z,20.02
2023-03-05T13:13:37.645Z,20.03
2023-03-05T13:16:07.696Z,20.03
2023-03-05T13:18:38.822Z,20.02
2023-03-05T13:21:10.242Z,20.01
2023-03-05T13:23:39.810Z,20.02
2023-03-05T13:26:22.367Z,20.02
2023-03-05T13:29:18.837Z,20.02
2023-03-05T13:31:53.594Z,20.02
2023-03-05T13:34:46.788Z,20.01
2023-03-05T13:37:21.270Z,20.00
2023-03-05T13:39:51.639Z,20.01
2023-03-05T13:42:22.747Z,20.00
2023-03-05T13:44:59.903Z,20.00
2023-03-05T13:47:38.596Z,19.99
2023-03-05T13:50:09.856Z,20.01
2023-03-05T13:52:40.129Z,20.01
2023-03-05T13:55:18.021Z,19.96
2023-03-05T13:57:51.502Z,19.97
2023-03-05T14:00:40.530Z,19.98
2023-03-05T14:03:26.921Z,19.96
2023-03-05T14:05:56.516Z,19.95
2023-03-05T14:08:27.587Z,19.93
2023-03-05T14:11:14.538Z,19.95
2023-03-05T14:13:44.529Z,19.98
2023-03-05T14:16:25.958Z,19.97
2023-03-05T14:18:59.865Z,19.96
2023-03-05T14:21:45.097Z,19.93
2023-03-05T14:24:25.251Z,19.96
2023-03-05T14:26:57.989Z,19.95
2023-03-05T14:29:30.550Z,19.94
2023-03-05T14:32:01.767Z,19.94
2023-03-05T14:34:35.384Z,19.94
2023-03-05T14:37:06.899Z,19.93
2023-03-05T14:40:02.318Z,19.95
2023-03-05T14:42:39.620Z,19.93
2023-03-05T14:45:15.077Z,19.94
2023-03-05T14:47:44.667Z,19.93
2023-03-05T14:50:38.176Z,19.94
2023-03-05T14:53:28.043Z,19.90
2023-03-05T14:55:58.450Z,19.92
2023-03-05T14:58:33.793Z,19.93
2023-03-05T15:01:03.458Z,19.91
2023-03-05T15:03:34.507Z,19.90
2023-03-05T15:06:04.685Z,19.90
2023-03-05T15:08:34.386Z,19.90
2023-03-05T15:11:05.358Z,19.91
2023-03-05T15:13:36.222Z,19.88
2023-03-05T15:16:07.313Z,19.90
2023-03-05T15:18:36.921Z,19.89
2023-03-05T15:21:06.733Z,19.88
2023-03-05T15:23:37.957Z,19.85
2023-03-05T15:26:09.027Z,19.89
2023-03-05T15:28:39.745Z,19.88
2023-03-05T15:31:09.448Z,19.88
2023-03-05T15:33:39.189Z,19.84
2023-03-05T15:36:10.358Z,19.85
2023-03-05T15:38:40.459Z,19.84
2023-03-05T15:41:10.399Z,19.85
2023-03-05T15:43:40.267Z,19.84
2023-03-05T15:46:10.067Z,19.83
2023-03-05T15:48:39.767Z,19.84
2023-03-05T15:51:10.397Z,19.84
2023-03-05T15:53:40.015Z,19.83
2023-03-05T15:56:09.747Z,19.84
2023-03-05T15:58:41.064Z,19.82
2023-03-05T16:01:11.052Z,19.82
2023-03-05T16:03:40.891Z,19.82
2023-03-05T16:06:10.782Z,19.82
2023-03-05T16:08:40.371Z,19.83
2023-03-05T16:11:10.080Z,19.81
2023-03-05T16:13:39.746Z,19.80
2023-03-05T16:16:09.729Z,19.80
2023-03-05T16:18:41.363Z,19.79
2023-03-05T16:21:11.474Z,19.78
2023-03-05T16:23:41.376Z,19.81
2023-03-05T16:26:12.104Z,19.79
2023-03-05T16:28:41.713Z,19.80
2023-03-05T16:31:11.327Z,19.80
2023-03-05T16:33:41.080Z,19.79
2023-03-05T16:36:13.623Z,19.82
2023-03-05T16:38:43.182Z,19.77
2023-03-05T16:41:12.755Z,19.78
2023-03-05T16:43:42.401Z,19.77
2023-03-05T16:46:12.389Z,19.78
2023-03-05T16:48:42.522Z,19.77
2023-03-05T16:51:12.698Z,19.76
2023-03-05T16:53:42.497Z,19.77
2023-03-05T16:56:12.210Z,19.76
2023-03-05T16:58:45.045Z,19.78
2023-03-05T17:01:21.875Z,19.78
2023-03-05T17:03:51.647Z,19.76
2023-03-05T17:06:23.323Z,19.77
2023-03-05T17:08:53.780Z,19.76
2023-03-05T17:11:23.578Z,19.75
2023-03-05T17:13:53.258Z,19.73
2023-03-05T17:16:23.637Z,19.74
2023-03-05T17:18:53.233Z,19.74
2023-03-05T17:21:22.946Z,19.73
2023-03-05T17:23:52.726Z,19.72
2023-03-05T17:26:22.626Z,19.71
2023-03-05T17:28:53.620Z,19.73
2023-03-05T17:31:24.156Z,19.73
2023-03-05T17:33:53.941Z,19.72
2023-03-05T17:36:23.974Z,19.72
2023-03-05T17:38:53.922Z,19.71
2023-03-05T17:41:23.809Z,19.71
2023-03-05T17:43:54.071Z,19.71
2023-03-05T17:46:23.735Z,19.69
2023-03-05T17:48:53.406Z,19.70
2023-03-05T17:51:23.114Z,19.70
2023-03-05T17:53:52.717Z,19.70
2023-03-05T17:56:24.706Z,19.69
2023-03-05T17:58:55.430Z,19.69
2023-03-05T18:01:26.788Z,19.68
2023-03-05T18:03:56.563Z,19.68
2023-03-05T18:06:26.410Z,19.67
2023-03-05T18:08:56.085Z,19.67
2023-03-05T18:11:25.792Z,19.69
2023-03-05T18:13:55.562Z,19.68
2023-03-05T18:16:26.696Z,19.67
2023-03-05T18:18:56.361Z,19.69
2023-03-05T18:21:26.672Z,19.67
2023-03-05T18:23:56.944Z,19.68
2023-03-05T18:26:26.615Z,19.71
2023-03-05T18:28:56.291Z,19.68
2023-03-05T18:31:25.971Z,19.66
2023-03-05T18:33:55.573Z,19.66
2023-03-05T18:36:25.219Z,19.66
2023-03-05T18:38:54.825Z,19.66
2023-03-05T18:41:27.848Z,19.65
2023-03-05T18:43:57.883Z,19.66
2023-03-05T18:46:27.699Z,19.66
2023-03-05T18:48:57.373Z,19.63
2023-03-05T18:51:27.004Z,19.66
2023-03-05T18:53:59.097Z,19.66
2023-03-05T18:56:28.804Z,19.64
2023-03-05T18:58:59.049Z,19.65
2023-03-05T19:01:28.953Z,19.66
2023-03-05T19:03:58.890Z,19.65
2023-03-05T19:06:28.541Z,19.61
2023-03-05T19:09:01.199Z,19.63
2023-03-05T19:11:30.839Z,19.63
2023-03-05T19:14:00.486Z,19.62
2023-03-05T19:16:32.569Z,19.63
2023-03-05T19:19:16.942Z,19.62
2023-03-05T19:22:04.814Z,19.61
2023-03-05T19:24:34.856Z,19.60
2023-03-05T19:27:11.685Z,19.61
2023-03-05T19:29:42.131Z,19.60
2023-03-05T19:32:14.476Z,19.60
2023-03-05T19:34:44.329Z,19.59
2023-03-05T19:37:14.270Z,19.59
2023-03-05T19:39:44.049Z,19.60
2023-03-05T19:42:13.648Z,19.58
2023-03-05T19:44:43.430Z,19.60
2023-03-05T19:47:13.139Z,19.57
2023-03-05T19:49:42.775Z,19.59
2023-03-05T19:52:12.403Z,19.59
2023-03-05T19:54:42.001Z,19.58
2023-03-05T19:57:11.603Z,19.57
2023-03-05T19:59:41.335Z,19.59
2023-03-05T20:02:13.505Z,19.58
2023-03-05T20:04:43.336Z,19.55
2023-03-05T20:07:12.950Z,19.56
2023-03-05T20:09:42.633Z,19.54
2023-03-05T20:12:12.378Z,19.57
2023-03-05T20:14:42.008Z,19.54
2023-03-05T20:17:11.671Z,19.53
2023-03-05T20:19:41.324Z,19.52
2023-03-05T20:22:10.945Z,19.52
2023-03-05T20:24:40.558Z,19.51
2023-03-05T20:27:10.132Z,19.51
2023-03-05T20:29:39.702Z,19.50
2023-03-05T20:32:09.419Z,19.52
2023-03-05T20:34:39.074Z,19.49
2023-03-05T20:37:09.067Z,19.49
2023-03-05T20:39:38.654Z,19.47
2023-03-05T20:42:08.339Z,19.49
2023-03-05T20:44:37.985Z,19.49
2023-03-05T20:47:25.289Z,19.47
2023-03-05T20:49:57.809Z,19.47
2023-03-05T20:52:27.390Z,19.46
2023-03-05T20:54:57.108Z,19.45
2023-03-05T20:57:26.772Z,19.45
2023-03-05T20:59:56.403Z,19.46
2023-03-05T21:02:26.036Z,19.46
2023-03-05T21:04:55.693Z,19.46
2023-03-05T21:07:27.368Z,19.52
2023-03-05T21:09:57.042Z,19.97
2023-03-05T21:12:26.698Z,20.41
2023-03-05T21:14:56.389Z,21.03
2023-03-05T21:17:25.989Z,21.66
2023-03-05T21:19:55.618Z,22.18
2023-03-05T21:22:25.328Z,22.49
2023-03-05T21:25:13.980Z,22.93
2023-03-05T21:27:44.068Z,23.63
2023-03-05T21:30:14.123Z,24.15
2023-03-05T21:32:43.823Z,24.59
2023-03-05T21:35:23.063Z,24.92
2023-03-05T21:37:54.181Z,25.24
2023-03-05T21:40:23.993Z,25.38
2023-03-05T21:42:54.411Z,25.55
2023-03-05T21:45:26.713Z,25.80
2023-03-05T21:47:57.610Z,26.07
2023-03-05T21:50:27.378Z,26.32
2023-03-05T21:52:57.252Z,26.33
2023-03-05T21:55:34.315Z,26.41
2023-03-05T21:58:03.964Z,26.49
2023-03-05T22:00:33.580Z,26.47
2023-03-05T22:03:03.153Z,26.51
2023-03-05T22:05:32.773Z,26.56
2023-03-05T22:08:02.449Z,26.55
2023-03-05T22:10:32.107Z,26.66
2023-03-05T22:13:13.905Z,26.76
2023-03-05T22:15:48.326Z,26.75
2023-03-05T22:18:22.387Z,26.89
2023-03-05T22:20:51.368Z,26.90
2023-03-05T22:23:23.643Z,26.88
2023-03-05T22:26:04.454Z,27.04
2023-03-05T22:28:34.428Z,27.05
2023-03-05T22:31:04.334Z,26.97
2023-03-05T22:33:34.402Z,27.03
2023-03-05T22:36:10.719Z,27.12
2023-03-05T22:38:40.408Z,27.05
2023-03-05T22:41:14.085Z,27.10
2023-03-05T22:43:43.680Z,27.25
2023-03-05T22:46:22.409Z,27.24
2023-03-05T22:48:52.487Z,27.32
2023-03-05T22:51:22.611Z,27.42
2023-03-05T22:53:52.345Z,27.38
2023-03-05T22:56:22.444Z,27.44
2023-03-05T22:58:52.121Z,27.48
2023-03-05T23:01:27.320Z,27.57
2023-03-05T23:04:04.785Z,27.55
2023-03-05T23:06:34.688Z,27.68
2023-03-05T23:09:04.647Z,27.88
2023-03-05T23:11:34.306Z,27.98
2023-03-05T23:14:04.052Z,27.99
2023-03-05T23:16:33.660Z,28.15
2023-03-05T23:19:03.389Z,28.09
2023-03-05T23:21:33.258Z,28.12
2023-03-05T23:24:02.950Z,28.23
2023-03-05T23:26:32.635Z,28.13
2023-03-05T23:29:02.343Z,28.21
2023-03-05T23:31:32.035Z,28.11
2023-03-05T23:34:01.731Z,28.25
2023-03-05T23:36:31.423Z,28.27
2023-03-05T23:39:02.155Z,28.24
2023-03-05T23:41:31.824Z,28.39
2023-03-05T23:44:01.682Z,28.33
2023-03-05T23:46:32.103Z,28.34
2023-03-05T23:49:01.713Z,28.37
2023-03-05T23:51:31.393Z,28.36
2023-03-05T23:54:01.064Z,28.32
2023-03-05T23:56:30.754Z,28.37
2023-03-05T23:59:02.130Z,28.33
